createdAt,value
2022-09-22T00:01:05.441Z,8.58
2022-09-22T00:03:43.118Z,8.58
2022-09-22T00:06:13.117Z,8.47
2022-09-22T00:08:42.403Z,8.51
2022-09-22T00:11:17.013Z,8.44
2022-09-22T00:13:52.088Z,8.44
2022-09-22T00:16:25.111Z,8.37
2022-09-22T00:18:51.613Z,8.38
2022-09-22T00:21:20.162Z,8.40
2022-09-22T00:23:47.198Z,8.32
2022-09-22T00:26:17.684Z,8.17
2022-09-22T00:28:46.005Z,8.25
2022-09-22T00:31:24.599Z,8.18
2022-09-22T00:33:52.956Z,8.10
2022-09-22T00:36:23.112Z,8.13
2022-09-22T00:38:51.488Z,8.15
2022-09-22T00:41:21.597Z,8.21
2022-09-22T00:43:50.356Z,8.16
2022-09-22T00:46:28.640Z,8.06
2022-09-22T00:49:03.044Z,8.11
2022-09-22T00:51:34.774Z,7.99
2022-09-22T00:54:05.755Z,8.10
2022-09-22T00:56:38.455Z,8.11
2022-09-22T00:59:09.264Z,8.15
2022-09-22T01:01:40.137Z,8.06
2022-09-22T01:04:07.852Z,7.99
2022-09-22T01:06:37.142Z,7.92
2022-09-22T01:09:03.682Z,7.83
2022-09-22T01:11:30.370Z,7.93
2022-09-22T01:14:26.292Z,7.91
2022-09-22T01:17:04.492Z,7.83
2022-09-22T01:20:12.696Z,7.85
2022-09-22T01:23:07.642Z,7.83
2022-09-22T01:26:00.205Z,7.83
2022-09-22T01:28:45.404Z,7.71
2022-09-22T01:31:25.542Z,7.76
2022-09-22T01:34:17.573Z,7.63
2022-09-22T01:36:56.070Z,7.60
2022-09-22T01:39:37.161Z,7.68
2022-09-22T01:42:11.368Z,7.65
2022-09-22T01:44:52.358Z,7.62
2022-09-22T01:47:26.276Z,7.58
2022-09-22T01:49:58.878Z,7.50
2022-09-22T01:52:29.085Z,7.47
2022-09-22T01:55:00.944Z,7.56
2022-09-22T01:57:43.727Z,7.46
2022-09-22T02:00:11.153Z,7.34
2022-09-22T02:03:06.686Z,7.43
2022-09-22T02:05:40.356Z,7.45
2022-09-22T02:08:11.738Z,7.46
2022-09-22T02:10:42.594Z,7.42
2022-09-22T02:13:09.024Z,7.41
2022-09-22T02:15:54.521Z,7.40
2022-09-22T02:18:27.560Z,7.41
2022-09-22T02:20:54.154Z,7.39
2022-09-22T02:23:20.610Z,7.39
2022-09-22T02:25:48.410Z,7.24
2022-09-22T02:28:18.074Z,7.21
2022-09-22T02:31:10.486Z,7.32
2022-09-22T02:33:38.406Z,7.19
2022-09-22T02:36:35.628Z,7.20
2022-09-22T02:39:10.021Z,7.33
2022-09-22T02:41:47.077Z,7.26
2022-09-22T02:44:21.351Z,7.23
2022-09-22T02:46:59.466Z,7.22
2022-09-22T02:49:27.833Z,7.23
2022-09-22T02:51:54.791Z,7.19
2022-09-22T02:54:22.551Z,7.19
2022-09-22T02:56:49.006Z,7.14
2022-09-22T02:59:15.442Z,7.11
2022-09-22T03:01:41.992Z,7.11
2022-09-22T03:04:08.572Z,7.11
2022-09-22T03:06:35.061Z,7.11
2022-09-22T03:09:01.525Z,7.05
2022-09-22T03:11:27.870Z,6.98
2022-09-22T03:13:54.545Z,6.95
2022-09-22T03:16:21.283Z,6.92
2022-09-22T03:18:47.757Z,6.98
2022-09-22T03:21:14.090Z,6.95
2022-09-22T03:23:40.469Z,6.99
2022-09-22T03:26:06.848Z,6.90
2022-09-22T03:28:33.249Z,6.94
2022-09-22T03:30:59.638Z,6.87
2022-09-22T03:33:26.080Z,6.83
2022-09-22T03:35:52.538Z,6.84
2022-09-22T03:38:18.919Z,6.79
2022-09-22T03:40:52.827Z,6.74
2022-09-22T03:43:19.954Z,6.69
2022-09-22T03:45:46.721Z,6.69
2022-09-22T03:48:13.380Z,6.65
2022-09-22T03:50:39.916Z,6.66
2022-09-22T03:53:06.283Z,6.72
2022-09-22T03:55:32.654Z,6.66
2022-09-22T03:57:59.074Z,6.73
2022-09-22T04:00:25.572Z,6.62
2022-09-22T04:02:51.998Z,6.59
2022-09-22T04:05:18.793Z,6.65
2022-09-22T04:07:45.198Z,6.62
2022-09-22T04:10:11.555Z,6.56
2022-09-22T04:12:37.969Z,6.55
2022-09-22T04:15:04.906Z,6.50
2022-09-22T04:17:31.249Z,6.49
2022-09-22T04:19:57.901Z,6.48
2022-09-22T04:22:24.316Z,6.40
2022-09-22T04:24:50.705Z,6.36
2022-09-22T04:27:21.080Z,6.47
2022-09-22T04:29:48.294Z,6.49
2022-09-22T04:32:15.240Z,6.42
2022-09-22T04:34:41.710Z,6.46
2022-09-22T04:37:08.159Z,6.40
2022-09-22T04:39:35.480Z,6.34
2022-09-22T04:42:02.362Z,6.39
2022-09-22T04:44:34.569Z,6.35
2022-09-22T04:47:01.422Z,6.40
2022-09-22T04:49:27.795Z,6.43
2022-09-22T04:51:54.192Z,6.35
2022-09-22T04:54:20.527Z,6.33
2022-09-22T04:56:46.876Z,6.26
2022-09-22T04:59:13.228Z,6.34
2022-09-22T05:01:39.684Z,6.31
2022-09-22T05:04:06.170Z,6.35
2022-09-22T05:06:32.513Z,6.25
2022-09-22T05:08:58.903Z,6.25
2022-09-22T05:11:25.399Z,6.19
2022-09-22T05:13:51.839Z,6.21
2022-09-22T05:16:18.399Z,6.27
2022-09-22T05:18:44.859Z,6.16
2022-09-22T05:21:11.276Z,6.20
2022-09-22T05:23:39.318Z,6.25
2022-09-22T05:26:06.647Z,6.22
2022-09-22T05:28:33.101Z,6.16
2022-09-22T05:30:59.571Z,6.03
2022-09-22T05:33:25.916Z,6.02
2022-09-22T05:35:52.374Z,6.13
2022-09-22T05:38:18.753Z,6.04
2022-09-22T05:40:47.333Z,5.95
2022-09-22T05:43:13.865Z,5.89
2022-09-22T05:45:40.294Z,6.02
2022-09-22T05:48:06.836Z,6.02
2022-09-22T05:50:33.242Z,6.07
2022-09-22T05:53:07.922Z,5.84
2022-09-22T05:55:35.103Z,5.91
2022-09-22T05:58:02.365Z,5.85
2022-09-22T06:00:29.900Z,5.87
2022-09-22T06:02:56.435Z,5.65
2022-09-22T06:05:23.375Z,5.87
2022-09-22T06:08:03.207Z,5.89
2022-09-22T06:10:32.355Z,6.04
2022-09-22T06:13:00.189Z,6.08
2022-09-22T06:15:27.702Z,6.15
2022-09-22T06:17:55.549Z,6.16
2022-09-22T06:20:22.212Z,5.74
2022-09-22T06:22:48.928Z,5.89
2022-09-22T06:25:15.869Z,5.93
2022-09-22T06:27:44.108Z,5.97
2022-09-22T06:30:11.739Z,5.98
2022-09-22T06:32:43.644Z,6.16
2022-09-22T06:35:10.069Z,6.15
2022-09-22T06:37:40.677Z,6.19
2022-09-22T06:40:08.486Z,6.11
2022-09-22T06:42:35.720Z,6.00
2022-09-22T06:45:04.446Z,6.11
2022-09-22T06:47:32.232Z,6.09
2022-09-22T06:49:58.808Z,6.20
2022-09-22T06:52:25.181Z,6.31
2022-09-22T06:54:54.035Z,6.27
2022-09-22T06:57:20.483Z,6.33
2022-09-22T06:59:48.106Z,6.42
2022-09-22T07:02:14.576Z,6.29
2022-09-22T07:04:41.013Z,6.26
2022-09-22T07:07:08.212Z,6.17
2022-09-22T07:09:34.633Z,5.98
2022-09-22T07:12:01.201Z,6.29
2022-09-22T07:14:28.150Z,6.15
2022-09-22T07:16:55.177Z,6.29
2022-09-22T07:19:21.611Z,6.38
2022-09-22T07:21:48.258Z,6.38
2022-09-22T07:24:14.872Z,6.50
2022-09-22T07:26:41.776Z,6.41
2022-09-22T07:29:13.146Z,6.38
2022-09-22T07:31:41.375Z,6.42
2022-09-22T07:34:07.761Z,6.44
2022-09-22T07:36:37.060Z,6.62
2022-09-22T07:39:10.137Z,6.58
2022-09-22T07:41:41.694Z,6.49
2022-09-22T07:44:31.394Z,6.49
2022-09-22T07:46:58.118Z,6.62
2022-09-22T07:49:24.583Z,6.49
2022-09-22T07:51:54.918Z,6.62
2022-09-22T07:54:22.198Z,6.64
2022-09-22T07:56:49.971Z,6.77
2022-09-22T07:59:16.660Z,6.73
2022-09-22T08:01:47.578Z,6.92
2022-09-22T08:04:16.984Z,7.08
2022-09-22T08:06:48.609Z,7.09
2022-09-22T08:09:15.575Z,7.12
2022-09-22T08:11:45.899Z,7.17
2022-09-22T08:14:12.754Z,7.26
2022-09-22T08:16:40.368Z,7.22
2022-09-22T08:19:14.773Z,7.43
2022-09-22T08:21:49.097Z,7.57
2022-09-22T08:24:21.237Z,7.74
2022-09-22T08:26:50.389Z,7.88
2022-09-22T08:29:16.798Z,8.03
2022-09-22T08:31:45.303Z,8.15
2022-09-22T08:34:14.039Z,8.23
2022-09-22T08:36:46.269Z,8.25
2022-09-22T08:39:13.232Z,8.30
2022-09-22T08:41:42.908Z,8.48
2022-09-22T08:44:12.127Z,8.52
2022-09-22T08:46:41.326Z,8.71
2022-09-22T08:49:46.869Z,8.89
2022-09-22T08:52:23.742Z,9.03
2022-09-22T08:54:50.125Z,9.12
2022-09-22T08:57:44.312Z,9.29
2022-09-22T09:00:17.015Z,9.41
2022-09-22T09:03:17.253Z,9.58
2022-09-22T09:06:13.480Z,9.73
2022-09-22T09:09:05.257Z,9.82
2022-09-22T09:12:01.002Z,9.97
2022-09-22T09:15:15.014Z,10.13
2022-09-22T09:17:45.911Z,10.25
2022-09-22T09:20:12.313Z,10.42
2022-09-22T09:22:45.148Z,10.60
2022-09-22T09:25:23.874Z,10.80
2022-09-22T09:27:55.509Z,10.94
2022-09-22T09:30:21.934Z,11.08
2022-09-22T09:33:04.540Z,11.29
2022-09-22T09:35:49.415Z,11.35
2022-09-22T09:38:17.773Z,11.54
2022-09-22T09:40:59.281Z,11.74
2022-09-22T09:43:27.864Z,11.81
2022-09-22T09:46:12.793Z,11.93
2022-09-22T09:48:51.540Z,12.04
2022-09-22T09:51:19.852Z,12.22
2022-09-22T09:53:49.544Z,12.37
2022-09-22T09:56:22.355Z,12.42
2022-09-22T09:59:22.490Z,12.46
2022-09-22T10:01:51.014Z,12.68
2022-09-22T10:04:37.404Z,12.85
2022-09-22T10:07:20.096Z,12.99
2022-09-22T10:09:49.465Z,13.06
2022-09-22T10:12:34.272Z,13.27
2022-09-22T10:15:01.566Z,13.45
2022-09-22T10:17:33.707Z,13.60
2022-09-22T10:20:16.988Z,13.78
2022-09-22T10:22:44.070Z,13.85
2022-09-22T10:25:19.446Z,13.92
2022-09-22T10:28:00.578Z,14.11
2022-09-22T10:30:27.373Z,14.24
2022-09-22T10:33:15.781Z,14.36
2022-09-22T10:35:55.746Z,14.47
2022-09-22T10:38:29.247Z,14.55
2022-09-22T10:41:02.572Z,14.65
2022-09-22T10:43:53.720Z,14.81
2022-09-22T10:46:39.001Z,14.95
2022-09-22T10:49:15.432Z,15.06
2022-09-22T10:51:57.245Z,15.21
2022-09-22T10:54:26.387Z,15.36
2022-09-22T10:56:57.085Z,15.45
2022-09-22T10:59:38.728Z,15.57
2022-09-22T11:02:51.155Z,15.65
2022-09-22T11:06:02.152Z,15.81
2022-09-22T11:08:59.470Z,15.89
2022-09-22T11:11:59.457Z,15.98
2022-09-22T11:15:03.721Z,16.06
2022-09-22T11:17:45.492Z,16.14
2022-09-22T11:20:39.110Z,16.33
2022-09-22T11:23:48.286Z,16.38
2022-09-22T11:26:36.708Z,16.35
2022-09-22T11:29:09.067Z,16.43
2022-09-22T11:32:17.447Z,16.46
2022-09-22T11:35:12.805Z,16.64
2022-09-22T11:37:55.684Z,16.70
2022-09-22T11:40:53.568Z,16.81
2022-09-22T11:43:48.070Z,16.90
2022-09-22T11:46:28.652Z,16.92
2022-09-22T11:49:01.188Z,16.90
2022-09-22T11:51:33.994Z,16.98
2022-09-22T11:54:23.925Z,17.06
2022-09-22T11:56:54.769Z,17.15
2022-09-22T11:59:31.857Z,17.20
2022-09-22T12:02:04.648Z,17.27
2022-09-22T12:04:39.796Z,17.27
2022-09-22T12:07:13.808Z,17.10
2022-09-22T12:09:51.119Z,17.01
2022-09-22T12:12:22.156Z,16.98
2022-09-22T12:15:00.022Z,17.03
2022-09-22T12:17:40.789Z,17.27
2022-09-22T12:20:23.289Z,17.33
2022-09-22T12:23:03.402Z,17.39
2022-09-22T12:26:07.996Z,17.52
2022-09-22T12:28:43.189Z,17.65
2022-09-22T12:31:18.759Z,17.68
2022-09-22T12:33:47.450Z,17.66
2022-09-22T12:36:15.328Z,17.79
2022-09-22T12:38:42.109Z,17.98
2022-09-22T12:41:08.625Z,18.15
2022-09-22T12:43:36.542Z,18.11
2022-09-22T12:46:19.820Z,18.72
2022-09-22T12:48:46.668Z,19.15
2022-09-22T12:51:17.222Z,19.66
2022-09-22T12:53:44.077Z,19.88
2022-09-22T12:56:48.845Z,20.19
2022-09-22T12:59:43.146Z,20.44
2022-09-22T13:02:15.808Z,20.55
2022-09-22T13:05:03.428Z,20.38
2022-09-22T13:07:43.480Z,20.29
2022-09-22T13:10:22.404Z,20.07
2022-09-22T13:13:01.005Z,20.03
2022-09-22T13:15:29.051Z,20.18
2022-09-22T13:17:55.421Z,20.02
2022-09-22T13:20:33.517Z,19.65
2022-09-22T13:23:12.897Z,19.21
2022-09-22T13:25:41.002Z,18.65
2022-09-22T13:28:18.280Z,18.28
2022-09-22T13:30:46.266Z,17.91
2022-09-22T13:33:25.458Z,17.62
2022-09-22T13:36:03.332Z,17.33
2022-09-22T13:38:32.485Z,17.02
2022-09-22T13:40:58.928Z,16.82
2022-09-22T13:43:30.933Z,16.64
2022-09-22T13:45:59.933Z,16.41
2022-09-22T13:48:29.880Z,16.29
2022-09-22T13:51:01.642Z,16.17
2022-09-22T13:53:28.113Z,16.02
2022-09-22T13:55:54.760Z,15.96
2022-09-22T13:58:30.532Z,15.87
2022-09-22T14:01:15.567Z,15.75
2022-09-22T14:03:42.951Z,15.64
2022-09-22T14:06:14.009Z,15.55
2022-09-22T14:08:42.601Z,15.47
2022-09-22T14:11:15.590Z,15.45
2022-09-22T14:13:55.867Z,15.42
2022-09-22T14:16:34.532Z,15.36
2022-09-22T14:19:07.058Z,15.33
2022-09-22T14:21:47.596Z,15.31
2022-09-22T14:24:14.138Z,15.26
2022-09-22T14:26:46.753Z,15.23
2022-09-22T14:29:29.095Z,15.20
2022-09-22T14:32:33.821Z,15.18
2022-09-22T14:35:04.839Z,15.17
2022-09-22T14:37:36.419Z,15.19
2022-09-22T14:40:07.218Z,15.14
2022-09-22T14:42:34.253Z,15.09
2022-09-22T14:45:09.493Z,15.05
2022-09-22T14:47:40.436Z,15.01
2022-09-22T14:50:38.035Z,15.00
2022-09-22T14:53:12.066Z,14.91
2022-09-22T14:55:42.886Z,14.91
2022-09-22T14:58:18.355Z,14.97
2022-09-22T15:01:20.380Z,14.93
2022-09-22T15:04:00.709Z,14.90
2022-09-22T15:06:39.347Z,14.84
2022-09-22T15:09:07.524Z,14.85
2022-09-22T15:11:51.758Z,14.79
2022-09-22T15:14:43.923Z,14.82
2022-09-22T15:17:57.890Z,14.80
2022-09-22T15:20:34.858Z,14.77
2022-09-22T15:23:02.303Z,14.74
2022-09-22T15:25:29.175Z,14.75
2022-09-22T15:27:55.613Z,14.78
2022-09-22T15:30:22.328Z,14.77
2022-09-22T15:32:49.516Z,14.77
2022-09-22T15:35:17.621Z,14.76
2022-09-22T15:37:49.545Z,14.75
2022-09-22T15:40:19.288Z,14.74
2022-09-22T15:43:02.518Z,14.73
2022-09-22T15:45:32.837Z,14.73
2022-09-22T15:47:59.209Z,14.65
2022-09-22T15:50:29.343Z,14.62
2022-09-22T15:52:56.347Z,14.65
2022-09-22T15:55:24.193Z,14.60
2022-09-22T15:57:55.180Z,14.64
2022-09-22T16:00:28.382Z,14.62
2022-09-22T16:02:54.822Z,14.54
2022-09-22T16:05:21.606Z,14.61
2022-09-22T16:07:51.570Z,14.63
2022-09-22T16:10:23.396Z,14.62
2022-09-22T16:12:50.446Z,14.57
2022-09-22T16:15:17.462Z,14.61
2022-09-22T16:17:45.702Z,14.60
2022-09-22T16:20:14.420Z,14.57
2022-09-22T16:22:42.860Z,14.55
2022-09-22T16:25:11.222Z,14.54
2022-09-22T16:27:38.238Z,14.51
2022-09-22T16:30:05.452Z,14.50
2022-09-22T16:32:36.074Z,14.50
2022-09-22T16:35:03.624Z,14.44
2022-09-22T16:37:30.192Z,14.44
2022-09-22T16:39:56.594Z,14.43
2022-09-22T16:42:23.831Z,14.43
2022-09-22T16:44:50.643Z,14.39
2022-09-22T16:47:22.892Z,14.36
2022-09-22T16:49:51.109Z,14.35
2022-09-22T16:52:18.990Z,14.34
2022-09-22T16:54:46.115Z,14.27
2022-09-22T16:57:12.800Z,14.16
2022-09-22T16:59:39.264Z,14.05
2022-09-22T17:02:05.878Z,14.04
2022-09-22T17:04:32.757Z,13.97
2022-09-22T17:06:59.161Z,13.97
2022-09-22T17:09:25.533Z,13.92
2022-09-22T17:11:52.554Z,13.85
2022-09-22T17:14:21.381Z,13.73
2022-09-22T17:16:53.413Z,13.74
2022-09-22T17:19:22.097Z,13.58
2022-09-22T17:21:51.875Z,13.56
2022-09-22T17:24:19.453Z,13.56
2022-09-22T17:26:48.921Z,13.47
2022-09-22T17:29:17.460Z,13.50
2022-09-22T17:31:47.238Z,13.40
2022-09-22T17:34:13.925Z,13.34
2022-09-22T17:36:40.737Z,13.25
2022-09-22T17:39:10.230Z,13.27
2022-09-22T17:41:45.232Z,13.18
2022-09-22T17:44:11.660Z,13.07
2022-09-22T17:46:58.072Z,13.03
2022-09-22T17:49:43.023Z,13.06
2022-09-22T17:52:29.431Z,12.95
2022-09-22T17:55:06.569Z,12.76
2022-09-22T17:57:35.035Z,12.79
2022-09-22T18:00:01.595Z,12.79
2022-09-22T18:02:32.142Z,12.70
2022-09-22T18:04:58.786Z,12.77
2022-09-22T18:07:26.640Z,12.71
2022-09-22T18:09:55.334Z,12.68
2022-09-22T18:12:24.636Z,12.61
2022-09-22T18:14:53.364Z,12.60
2022-09-22T18:17:22.646Z,12.53
2022-09-22T18:19:49.114Z,12.48
2022-09-22T18:22:21.191Z,12.46
2022-09-22T18:24:51.496Z,12.44
2022-09-22T18:27:19.456Z,12.41
2022-09-22T18:29:53.153Z,12.36
2022-09-22T18:32:20.270Z,12.34
2022-09-22T18:34:47.899Z,12.18
2022-09-22T18:37:15.653Z,12.19
2022-09-22T18:39:44.634Z,12.18
2022-09-22T18:42:14.932Z,12.14
2022-09-22T18:44:41.640Z,12.04
2022-09-22T18:47:12.964Z,12.03
2022-09-22T18:49:40.558Z,12.00
2022-09-22T18:52:07.894Z,11.95
2022-09-22T18:54:35.890Z,11.93
2022-09-22T18:57:05.253Z,11.88
2022-09-22T18:59:31.638Z,11.86
2022-09-22T19:01:58.891Z,11.76
2022-09-22T19:04:26.821Z,11.53
2022-09-22T19:07:13.371Z,11.66
2022-09-22T19:09:40.057Z,11.71
2022-09-22T19:12:08.898Z,11.61
2022-09-22T19:14:38.141Z,11.63
2022-09-22T19:17:12.121Z,11.68
2022-09-22T19:19:42.278Z,11.68
2022-09-22T19:22:12.289Z,11.61
2022-09-22T19:24:40.298Z,11.46
2022-09-22T19:27:09.093Z,11.47
2022-09-22T19:29:35.629Z,11.45
2022-09-22T19:32:02.919Z,11.37
2022-09-22T19:34:29.824Z,11.32
2022-09-22T19:36:58.113Z,11.35
2022-09-22T19:39:25.128Z,11.31
2022-09-22T19:41:52.910Z,11.28
2022-09-22T19:44:21.078Z,11.20
2022-09-22T19:46:47.912Z,11.17
2022-09-22T19:49:15.511Z,11.07
2022-09-22T19:51:44.832Z,11.07
2022-09-22T19:54:11.828Z,11.15
2022-09-22T19:56:38.284Z,11.10
2022-09-22T19:59:08.557Z,11.07
2022-09-22T20:01:41.423Z,10.93
2022-09-22T20:04:17.910Z,10.99
2022-09-22T20:06:45.509Z,10.96
2022-09-22T20:09:12.176Z,10.94
2022-09-22T20:11:44.483Z,10.88
2022-09-22T20:14:22.050Z,10.67
2022-09-22T20:16:52.607Z,10.76
2022-09-22T20:19:20.396Z,10.80
2022-09-22T20:21:47.854Z,10.73
2022-09-22T20:24:16.749Z,10.75
2022-09-22T20:26:44.937Z,10.75
2022-09-22T20:29:13.098Z,10.70
2022-09-22T20:31:40.396Z,10.70
2022-09-22T20:34:07.493Z,10.69
2022-09-22T20:36:37.153Z,10.52
2022-09-22T20:39:04.656Z,10.62
2022-09-22T20:41:32.583Z,10.37
2022-09-22T20:43:59.201Z,10.47
2022-09-22T20:46:25.703Z,10.50
2022-09-22T20:48:55.192Z,10.41
2022-09-22T20:51:22.197Z,10.47
2022-09-22T20:53:48.660Z,10.43
2022-09-22T20:56:15.208Z,10.42
2022-09-22T20:58:43.884Z,10.40
2022-09-22T21:01:12.603Z,10.38
2022-09-22T21:03:39.554Z,10.37
2022-09-22T21:06:09.469Z,10.34
2022-09-22T21:08:59.104Z,10.27
2022-09-22T21:11:26.446Z,10.28
2022-09-22T21:13:55.547Z,10.22
2022-09-22T21:16:22.623Z,10.17
2022-09-22T21:18:51.571Z,10.13
2022-09-22T21:21:19.692Z,10.11
2022-09-22T21:23:48.275Z,10.13
2022-09-22T21:26:16.299Z,10.05
2022-09-22T21:28:43.259Z,9.84
2022-09-22T21:31:10.502Z,9.88
2022-09-22T21:33:37.694Z,9.92
2022-09-22T21:36:10.216Z,9.90
2022-09-22T21:38:37.045Z,9.94
2022-09-22T21:41:05.878Z,9.94
2022-09-22T21:43:32.952Z,9.85
2022-09-22T21:46:05.545Z,9.94
2022-09-22T21:48:33.479Z,9.86
2022-09-22T21:51:02.303Z,9.85
2022-09-22T21:53:29.770Z,9.79
2022-09-22T21:55:56.782Z,9.79
2022-09-22T21:58:23.269Z,9.74
2022-09-22T22:00:51.973Z,9.73
2022-09-22T22:03:30.849Z,9.75
2022-09-22T22:06:06.612Z,9.70
2022-09-22T22:08:40.953Z,9.57
2022-09-22T22:11:16.046Z,9.59
2022-09-22T22:13:45.123Z,9.58
2022-09-22T22:16:13.250Z,9.61
2022-09-22T22:18:41.148Z,9.49
2022-09-22T22:21:19.160Z,9.45
2022-09-22T22:23:50.153Z,9.54
2022-09-22T22:26:19.941Z,9.49
2022-09-22T22:28:48.327Z,9.51
2022-09-22T22:31:17.643Z,9.46
2022-09-22T22:33:44.595Z,9.39
2022-09-22T22:36:14.477Z,9.41
2022-09-22T22:38:41.797Z,9.42
2022-09-22T22:41:10.853Z,9.38
2022-09-22T22:43:38.301Z,9.35
2022-09-22T22:46:06.336Z,9.33
2022-09-22T22:48:33.089Z,9.30
2022-09-22T22:50:59.543Z,9.20
2022-09-22T22:53:26.524Z,9.27
2022-09-22T22:56:01.057Z,9.25
2022-09-22T22:58:31.096Z,9.09
2022-09-22T23:01:09.767Z,9.14
2022-09-22T23:03:41.040Z,8.95
2022-09-22T23:06:07.976Z,9.02
2022-09-22T23:08:35.712Z,9.02
2022-09-22T23:11:10.261Z,9.08
2022-09-22T23:13:38.007Z,9.02
2022-09-22T23:16:10.317Z,9.00
2022-09-22T23:18:39.020Z,8.97
2022-09-22T23:21:06.567Z,8.95
2022-09-22T23:23:34.118Z,9.00
2022-09-22T23:26:02.365Z,8.89
2022-09-22T23:28:30.906Z,8.83
2022-09-22T23:31:06.953Z,8.79
2022-09-22T23:33:33.370Z,8.86
2022-09-22T23:36:00.966Z,8.73
2022-09-22T23:38:29.710Z,8.74
2022-09-22T23:40:58.366Z,8.57
2022-09-22T23:43:26.167Z,8.68
2022-09-22T23:45:53.181Z,8.67
2022-09-22T23:48:21.915Z,8.70
2022-09-22T23:50:50.497Z,8.71
2022-09-22T23:53:18.798Z,8.66
2022-09-22T23:55:45.478Z,8.69
2022-09-22T23:58:14.299Z,8.65
